Time;durP1;ratioP1;P1;durP2;ratioP2;P2;SDS_P1;SDS_P2;PMS_P1;PMS_P2;Temp;Humidity;BMP_temperature;BMP_pressure;BME280_temperature;BME280_humidity;BME280_pressure;Samples;Min_cycle;Max_cycle;Signal;HPM_P1;HPM_P2
2023/01/28 00:00:23;;;;;;;3.42;1.70;;;;;;;-1.99;100.00;101921.59;4977794;28;20022;-92
2023/01/28 00:02:48;;;;;;;3.72;1.70;;;;;;;-2.05;100.00;101934.91;4961315;28;20049;-92
2023/01/28 00:05:14;;;;;;;7.32;2.13;;;;;;;-2.13;100.00;101938.66;4976227;28;20519;-92
2023/01/28 00:07:39;;;;;;;3.60;1.55;;;;;;;-2.25;100.00;101938.19;4975715;28;20039;-92
2023/01/28 00:10:05;;;;;;;2.13;1.30;;;;;;;-2.29;100.00;101961.00;4959225;28;20043;-91
2023/01/28 00:12:31;;;;;;;6.53;1.67;;;;;;;-2.33;100.00;101991.63;4967189;28;20029;-92
2023/01/28 00:14:56;;;;;;;2.20;1.63;;;;;;;-2.37;100.00;102015.31;4966506;28;20037;-92
2023/01/28 00:17:21;;;;;;;3.05;1.98;;;;;;;-2.42;100.00;102019.84;4980916;28;20435;-92
2023/01/28 00:19:47;;;;;;;3.35;2.00;;;;;;;-2.39;100.00;102053.72;4993522;28;20034;-92
2023/01/28 00:22:12;;;;;;;2.65;1.60;;;;;;;-2.43;100.00;102062.59;4974079;28;20060;-92
2023/01/28 00:24:37;;;;;;;5.82;2.53;;;;;;;-2.47;100.00;102058.34;4958187;28;20033;-93
2023/01/28 00:27:03;;;;;;;4.30;2.00;;;;;;;-2.52;100.00;102074.19;4969231;28;20035;-92
2023/01/28 00:29:28;;;;;;;7.68;3.05;;;;;;;-2.58;100.00;102066.50;4980964;28;20571;-92
2023/01/28 00:31:53;;;;;;;4.07;2.50;;;;;;;-2.65;100.00;102063.22;4973038;28;20403;-93
2023/01/28 00:34:20;;;;;;;5.70;2.45;;;;;;;-2.71;100.00;102060.81;4963426;28;20023;-92
2023/01/28 00:36:56;;;;;;;3.00;1.90;;;;;;;-2.73;100.00;102069.59;4978465;28;20035;-92
2023/01/28 00:39:21;;;;;;;;;;;;;;;-2.76;100.00;102079.22;4956964;28;20026;-92
2023/01/28 00:41:47;;;;;;;6.30;3.53;;;;;;;-2.80;100.00;102084.59;4971230;28;20630;-91
2023/01/28 00:44:12;;;;;;;7.13;2.15;;;;;;;-2.87;100.00;102083.06;4969950;28;20115;-92
2023/01/28 00:46:38;;;;;;;6.25;2.10;;;;;;;-2.92;100.00;102087.56;4990841;28;20049;-92
2023/01/28 00:49:03;;;;;;;7.13;2.38;;;;;;;-2.93;100.00;102098.91;4965820;28;20026;-92
2023/01/28 00:51:28;;;;;;;4.80;2.22;;;;;;;-3.02;100.00;102098.28;4970975;28;20454;-91
2023/01/28 00:53:54;;;;;;;4.85;2.47;;;;;;;-2.95;100.00;102106.81;4984864;28;20125;-92
2023/01/28 00:56:19;;;;;;;5.05;2.10;;;;;;;-2.93;100.00;102117.19;4987551;28;20031;-92
2023/01/28 00:58:45;;;;;;;4.88;2.53;;;;;;;-3.02;100.00;102110.44;4988014;28;20105;-91
2023/01/28 01:01:12;;;;;;;;;;;;;;;-2.98;100.00;102119.94;4955771;28;20038;-92
2023/01/28 01:03:37;;;;;;;4.70;2.50;;;;;;;-3.12;100.00;102094.16;4971624;28;19953;-92
2023/01/28 01:06:03;;;;;;;6.32;2.40;;;;;;;-3.03;100.00;102116.59;4954815;28;20499;-92
2023/01/28 01:08:33;;;;;;;5.50;2.78;;;;;;;-3.10;100.00;102115.91;4964301;28;20038;-91
2023/01/28 01:11:00;;;;;;;3.53;2.65;;;;;;;-3.10;100.00;102112.44;4968554;28;20401;-92
2023/01/28 01:13:26;;;;;;;5.05;2.60;;;;;;;-3.05;100.00;102121.84;4974358;28;20018;-91
2023/01/28 01:16:02;;;;;;;5.68;2.63;;;;;;;-3.07;100.00;102128.00;4989201;28;20027;-91
2023/01/28 01:18:28;;;;;;;4.90;2.78;;;;;;;-3.08;100.00;102121.09;4973884;28;20038;-91
2023/01/28 01:20:57;;;;;;;6.82;3.20;;;;;;;-3.21;100.00;102099.66;4954173;28;20093;-90
2023/01/28 01:23:25;;;;;;;5.40;3.10;;;;;;;-3.22;100.00;102111.84;4977104;28;20043;-91
2023/01/28 01:25:50;;;;;;;5.38;3.65;;;;;;;-3.09;100.00;102133.31;4965777;28;20081;-90
2023/01/28 01:28:16;;;;;;;5.55;3.40;;;;;;;-3.10;100.00;102133.34;4969772;28;20038;-90
2023/01/28 01:30:41;;;;;;;;;;;;;;;-3.06;100.00;102134.97;4953883;28;20074;-91
2023/01/28 01:33:07;;;;;;;;;;;;;;;-3.08;100.00;102132.38;4983217;28;19917;-91
2023/01/28 01:35:32;;;;;;;6.90;3.10;;;;;;;-3.15;100.00;102120.41;4989529;28;19961;-92
2023/01/28 01:37:57;;;;;;;6.28;3.13;;;;;;;-3.19;100.00;102121.38;4965611;28;20033;-90
2023/01/28 01:40:23;;;;;;;6.13;3.50;;;;;;;-3.15;100.00;102130.00;4989064;28;20038;-91
2023/01/28 01:42:48;;;;;;;8.30;3.22;;;;;;;-3.21;100.00;102123.16;4985968;28;20044;-91
2023/01/28 01:45:15;;;;;;;8.13;3.58;;;;;;;-3.14;100.00;102132.53;4969386;28;20038;-90
2023/01/28 01:47:45;;;;;;;4.60;2.78;;;;;;;-3.13;100.00;102136.03;4953335;28;20439;-90
2023/01/28 01:50:20;;;;;;;9.10;4.10;;;;;;;-3.15;100.00;102136.06;4978094;28;20018;-91
2023/01/28 01:52:48;;;;;;;9.07;3.45;;;;;;;-3.22;100.00;102137.97;4993439;28;20041;-91
2023/01/28 01:55:17;;;;;;;6.88;2.95;;;;;;;-3.17;100.00;102132.63;4967720;28;20110;-91
2023/01/28 01:57:46;;;;;;;8.15;3.25;;;;;;;-3.22;100.00;102142.34;4972115;28;20027;-91
2023/01/28 02:00:12;;;;;;;6.25;3.47;;;;;;;-3.23;100.00;102143.22;4958146;28;20038;-92
2023/01/28 02:02:44;;;;;;;8.68;3.53;;;;;;;-3.17;100.00;102148.31;4963327;28;20027;-91
2023/01/28 02:05:13;;;;;;;9.95;3.70;;;;;;;-3.32;100.00;102135.66;4962629;28;20053;-91
2023/01/28 02:07:40;;;;;;;6.00;3.13;;;;;;;-3.31;100.00;102145.19;4977505;28;20034;-91
2023/01/28 02:10:07;;;;;;;7.20;3.40;;;;;;;-3.28;100.00;102147.72;4976846;28;20055;-91
2023/01/28 02:12:55;;;;;;;9.85;3.20;;;;;;;-3.23;100.00;102156.28;4976564;28;20030;-91
2023/01/28 02:15:25;;;;;;;7.70;4.43;;;;;;;-3.23;100.00;102151.06;4994478;28;20036;-91
2023/01/28 02:17:51;;;;;;;7.28;4.35;;;;;;;-3.29;100.00;102153.84;4976710;28;20116;-91
2023/01/28 02:20:47;;;;;;;7.43;3.70;;;;;;;-3.28;100.00;102156.44;4969447;28;20266;-91
2023/01/28 02:23:37;;;;;;;8.38;4.68;;;;;;;-3.29;100.00;102157.31;4948655;28;20046;-91
2023/01/28 02:26:21;;;;;;;9.55;4.00;;;;;;;-3.23;100.00;102158.91;4974252;28;20433;-91
2023/01/28 02:29:03;;;;;;;7.97;4.28;;;;;;;-3.25;100.00;102151.13;4972873;28;20612;-91
2023/01/28 02:31:35;;;;;;;6.07;4.10;;;;;;;-3.25;100.00;102155.50;4957620;28;20038;-91
2023/01/28 02:34:17;;;;;;;9.57;4.13;;;;;;;-3.27;100.00;102162.50;4982320;28;20038;-91
2023/01/28 02:36:50;;;;;;;12.15;4.43;;;;;;;-3.34;100.00;102146.13;4955393;28;20034;-91
2023/01/28 02:39:22;;;;;;;6.10;3.95;;;;;;;-3.48;100.00;102128.19;4957102;28;20100;-91
2023/01/28 02:42:01;;;;;;;7.90;4.30;;;;;;;-3.42;100.00;102143.72;4965161;28;20105;-91
2023/01/28 02:44:26;;;;;;;7.07;4.20;;;;;;;-3.56;100.00;102124.91;4957300;28;20720;-91
2023/01/28 02:49:47;;;;;;;8.07;4.85;;;;;;;-3.50;100.00;102139.59;4971653;28;20218;-91
2023/01/28 02:53:39;;;;;;;9.00;3.67;;;;;;;-3.50;100.00;102142.19;4984097;28;20035;-91
2023/01/28 02:55:37;;;;;;;9.80;4.22;;;;;;;-3.55;100.00;102137.09;4972655;28;20527;-91
2023/01/28 02:58:09;;;;;;;6.38;4.07;;;;;;;-3.59;100.00;102132.81;4966808;28;20041;-91
2023/01/28 03:00:53;;;;;;;7.72;4.45;;;;;;;-3.68;100.00;102123.47;4957683;28;20031;-90
2023/01/28 03:03:34;;;;;;;8.15;4.35;;;;;;;-3.86;100.00;102098.69;4973229;28;20026;-91
2023/01/28 03:06:14;;;;;;;6.38;4.05;;;;;;;-3.88;100.00;102097.00;4986741;28;20448;-90
2023/01/28 03:36:48;;;;;;;7.15;4.68;;;;;;;-4.18;100.00;102120.28;4986248;28;20437;-91
2023/01/28 03:39:30;;;;;;;10.35;4.68;;;;;;;-4.22;100.00;102123.00;4971738;28;20492;-90
2023/01/28 03:42:10;;;;;;;;;;;;;;;-4.19;100.00;102129.03;4972089;28;20026;-90
2023/01/28 03:44:54;;;;;;;8.20;4.50;;;;;;;-4.20;100.00;102116.00;4968724;28;19914;-91
2023/01/28 03:47:25;;;;;;;9.80;4.88;;;;;;;-4.22;100.00;102112.56;4970028;28;20041;-91
2023/01/28 03:49:53;;;;;;;9.48;4.95;;;;;;;-4.21;100.00;102122.09;4981976;28;20042;-90
2023/01/28 03:52:23;;;;;;;10.07;4.80;;;;;;;-4.26;100.00;102117.00;4970280;28;20026;-91
2023/01/28 03:54:49;;;;;;;8.57;5.25;;;;;;;-4.40;100.00;102099.06;4974551;28;20030;-90
2023/01/28 03:57:15;;;;;;;;;;;;;;;-4.41;100.00;102092.13;5002185;23;20042;-69
2023/01/28 03:59:41;;;;;;;10.02;5.43;;;;;;;-4.39;100.00;102097.31;4987628;28;20434;-70
2023/01/28 04:02:07;;;;;;;9.30;5.25;;;;;;;-4.41;100.00;102097.31;5002212;28;20140;-70
2023/01/28 04:04:33;;;;;;;10.27;5.38;;;;;;;-4.42;100.00;102107.81;4988121;28;20084;-70
2023/01/28 04:06:59;;;;;;;9.63;4.50;;;;;;;-4.54;100.00;102095.88;5001747;28;20026;-70
2023/01/28 04:09:53;;;;;;;10.45;5.43;;;;;;;-4.56;100.00;102097.69;4985319;28;20037;-70
2023/01/28 04:12:36;;;;;;;10.43;5.50;;;;;;;-4.52;100.00;102104.50;4981996;28;20030;-70
2023/01/28 04:15:14;;;;;;;10.38;5.70;;;;;;;-4.57;100.00;102098.56;5001439;28;20034;-70
2023/01/28 04:17:46;;;;;;;12.15;5.38;;;;;;;-4.57;100.00;102095.94;4982920;28;20049;-69
2023/01/28 04:20:18;;;;;;;18.23;6.18;;;;;;;-4.68;100.00;102088.38;4999494;28;20108;-70
2023/01/28 04:22:43;;;;;;;15.40;6.22;;;;;;;-4.66;100.00;102094.38;4992476;28;20475;-70
2023/01/28 04:25:10;;;;;;;14.20;6.35;;;;;;;-4.69;100.00;102103.13;4968980;28;20119;-70
2023/01/28 04:27:35;;;;;;;13.07;6.88;;;;;;;-4.65;100.00;102118.72;4985084;28;20584;-70
2023/01/28 04:30:10;;;;;;;10.43;6.30;;;;;;;-4.72;100.00;102121.44;5001145;28;20074;-70
2023/01/28 04:33:08;;;;;;;13.23;5.90;;;;;;;-4.75;100.00;102116.28;4957611;28;20093;-70
2023/01/28 04:35:56;;;;;;;9.05;5.40;;;;;;;-4.63;100.00;102133.44;4984605;28;20093;-70
2023/01/28 04:38:52;;;;;;;16.05;6.30;;;;;;;-4.65;100.00;102123.94;4984729;28;20034;-70
2023/01/28 04:41:43;;;;;;;11.68;6.07;;;;;;;-4.64;100.00;102125.63;4983267;28;20037;-70
2023/01/28 04:44:17;;;;;;;12.43;5.10;;;;;;;-4.69;100.00;102134.41;4967582;28;20149;-70
2023/01/28 04:46:54;;;;;;;10.60;6.07;;;;;;;-4.74;100.00;102109.34;4990220;28;20443;-70
2023/01/28 04:49:32;;;;;;;11.43;5.53;;;;;;;-4.73;100.00;102121.44;4990645;28;20061;-70
2023/01/28 04:52:11;;;;;;;10.20;6.38;;;;;;;-4.72;100.00;102123.19;4967572;28;20606;-70
2023/01/28 04:54:56;;;;;;;13.63;5.88;;;;;;;-4.75;100.00;102107.63;4985399;28;20411;-70
2023/01/28 04:57:21;;;;;;;;;;;;;;;-4.77;100.00;102098.97;4990905;28;20074;-70
2023/01/28 04:59:47;;;;;;;13.20;6.03;;;;;;;-4.86;100.00;102076.56;4991400;28;20275;-70
2023/01/28 05:02:14;;;;;;;19.45;7.80;;;;;;;-4.80;100.00;102089.47;4990172;28;20030;-70
2023/01/28 05:04:40;;;;;;;16.08;7.80;;;;;;;-4.84;100.00;102090.41;4976158;28;20109;-72
2023/01/28 05:07:07;;;;;;;14.65;6.50;;;;;;;-4.85;100.00;102085.22;5000541;28;20064;-71
2023/01/28 05:09:33;;;;;;;;;;;;;;;-4.78;100.00;102082.47;4982756;28;20113;-70
2023/01/28 05:11:59;;;;;;;15.52;6.53;;;;;;;-4.80;100.00;102068.63;4984724;28;19917;-69
2023/01/28 05:14:24;;;;;;;;;;;;;;;-4.83;100.00;102079.09;4984884;28;20557;-70
2023/01/28 05:17:02;;;;;;;10.63;6.22;;;;;;;-4.87;100.00;102082.66;4982979;28;19952;-71
2023/01/28 05:19:27;;;;;;;;;;;;;;;-4.85;100.00;102080.03;4984830;28;20068;-70
2023/01/28 05:21:53;;;;;;;15.13;5.53;;;;;;;-4.84;100.00;102084.34;4983757;28;19913;-70
2023/01/28 05:24:33;;;;;;;14.02;6.75;;;;;;;-4.94;100.00;102065.44;4985994;28;20289;-70
2023/01/28 05:26:58;;;;;;;;;;;;;;;-4.90;100.00;102074.91;5000523;28;20049;-70
2023/01/28 05:29:24;;;;;;;;;;;;;;;-4.88;100.00;102083.56;4984538;28;19916;-70
2023/01/28 05:31:49;;;;;;;13.30;7.20;;;;;;;-4.93;100.00;102074.97;4983768;28;19917;-70
2023/01/28 05:34:15;;;;;;;;;;;;;;;-4.97;100.00;102081.13;4984507;28;20066;-70
2023/01/28 05:36:41;;;;;;;17.55;6.43;;;;;;;-5.00;100.00;102076.00;4983489;28;19913;-70
2023/01/28 05:39:23;;;;;;;15.35;8.15;;;;;;;-5.02;100.00;102088.19;4999238;28;20503;-70
2023/01/28 05:41:48;;;;;;;;;;;;;;;-5.01;100.00;102089.88;4976874;28;20089;-70
2023/01/28 05:44:13;;;;;;;;;;;;;;;-5.11;100.00;102069.22;4984436;28;20362;-70
2023/01/28 05:46:55;;;;;;;21.88;8.80;;;;;;;-5.09;100.00;102066.59;4983762;28;20318;-70
2023/01/28 05:49:43;;;;;;;24.27;11.30;;;;;;;-5.12;100.00;102067.53;4983561;28;20419;-72
2023/01/28 05:52:22;;;;;;;18.05;8.73;;;;;;;-5.12;100.00;102062.31;4967979;28;20030;-71
2023/01/28 05:54:47;;;;;;;;;;;;;;;-5.04;100.00;102064.75;4984260;28;20030;-70
2023/01/28 05:57:13;;;;;;;;;;;;;;;-5.03;100.00;102070.81;4983917;28;19914;-70
2023/01/28 05:59:38;;;;;;;15.15;7.43;;;;;;;-5.06;100.00;102070.88;4983778;28;19921;-70
2023/01/28 06:02:04;;;;;;;;;;;;;;;-5.04;100.00;102076.94;5000024;28;20030;-70
2023/01/28 06:04:29;;;;;;;14.38;6.65;;;;;;;-4.99;100.00;102082.91;4983937;28;20362;-70
2023/01/28 06:06:55;;;;;;;;;;;;;;;-5.15;100.00;102049.38;4983531;28;20369;-72
2023/01/28 06:09:20;;;;;;;;;;;;;;;-5.13;100.00;102064.94;4984230;28;19941;-72
2023/01/28 06:11:45;;;;;;;;;;;;;;;-5.22;100.00;102050.38;4983806;28;19971;-72
2023/01/28 06:14:12;;;;;;;13.57;7.03;;;;;;;-5.23;100.00;102060.81;4999614;28;19990;-72
2023/01/28 06:16:56;;;;;;;13.38;7.15;;;;;;;-5.22;100.00;102055.56;4985151;28;20026;-72
2023/01/28 06:19:31;;;;;;;16.77;7.03;;;;;;;-5.25;100.00;102050.41;5000997;28;20427;-70
2023/01/28 06:21:56;;;;;;;;;;;;;;;-5.23;100.00;102063.41;4984609;28;20041;-72
2023/01/28 06:24:21;;;;;;;16.92;7.25;;;;;;;-5.20;100.00;102081.56;4985669;28;19963;-71
2023/01/28 06:26:47;;;;;;;;;;;;;;;-5.25;100.00;102089.47;4985629;28;20048;-71
2023/01/28 06:29:12;;;;;;;12.50;5.95;;;;;;;-5.27;100.00;102088.63;4984173;28;19913;-70
2023/01/28 06:31:38;;;;;;;;;;;;;;;-5.22;100.00;102096.34;4989617;28;20446;-70
2023/01/28 06:34:03;;;;;;;14.87;6.87;;;;;;;-5.24;100.00;102108.56;4985546;28;20004;-70
2023/01/28 06:36:28;;;;;;;;;;;;;;;-5.26;100.00;102120.75;4971290;28;20022;-71
2023/01/28 06:38:54;;;;;;;;;;;;;;;-5.26;100.00;102126.81;4988803;28;19940;-70
2023/01/28 06:44:11;;;;;;;16.50;7.57;;;;;;;-5.29;100.00;102142.50;4969340;28;20506;-72
2023/01/28 06:46:36;;;;;;;;;;;;;;;-5.17;100.00;102144.88;4969176;28;20135;-73
2023/01/28 06:49:01;;;;;;;;;;;;;;;-5.15;100.00;102158.72;4971019;28;19949;-72
2023/01/28 06:51:27;;;;;;;15.80;7.50;;;;;;;-5.13;100.00;102167.38;4968881;28;19918;-71
2023/01/28 06:53:52;;;;;;;;;;;;;;;-5.18;100.00;102171.78;4967683;28;20034;-72
2023/01/28 06:56:17;;;;;;;16.00;7.57;;;;;;;-5.09;100.00;102175.97;4972726;28;20371;-72
2023/01/28 06:58:42;;;;;;;;;;;;;;;-5.14;100.00;102175.22;4972452;28;20289;-72
2023/01/28 07:01:08;;;;;;;17.55;8.73;;;;;;;-5.08;100.00;102177.72;4951483;28;19914;-72
2023/01/28 07:03:33;;;;;;;;;;;;;;;-5.04;100.00;102188.94;4968146;28;20499;-72
2023/01/28 07:05:58;;;;;;;26.60;10.88;;;;;;;-4.96;100.00;102192.25;4952168;28;20303;-72
2023/01/28 07:08:24;;;;;;;;;;;;;;;-4.94;100.00;102196.56;4969930;28;20077;-73
2023/01/28 07:10:49;;;;;;;23.83;11.23;;;;;;;-4.85;100.00;102198.13;4969081;28;19914;-72
2023/01/28 07:13:14;;;;;;;;;;;;;;;-4.86;100.00;102198.16;4957172;28;20434;-73
2023/01/28 07:15:40;;;;;;;16.30;8.30;;;;;;;-4.90;100.00;102197.34;4969222;28;19918;-73
2023/01/28 07:18:05;;;;;;;;;;;;;;;-4.92;100.00;102201.72;4969619;28;20408;-72
2023/01/28 07:20:31;;;;;;;20.88;9.75;;;;;;;-4.95;100.00;102191.38;4971111;28;20816;-71
2023/01/28 07:22:56;;;;;;;;;;;;;;;-5.00;100.00;102174.97;4968745;28;20875;-72
2023/01/28 07:25:21;;;;;;;22.83;9.80;;;;;;;-4.82;100.00;102195.47;4967696;28;19925;-72
2023/01/28 07:27:51;;;;;;;;;;;;;;;-4.82;100.00;102198.06;4970909;28;20050;-72
2023/01/28 07:30:18;;;;;;;18.05;9.23;;;;;;;-4.70;100.00;102202.19;4968245;28;19914;-72
2023/01/28 07:32:43;;;;;;;24.50;11.10;;;;;;;-4.69;100.00;102207.38;4952969;28;20454;-73
2023/01/28 07:35:09;;;;;;;;;;;;;;;-4.61;100.00;102217.66;4970462;28;20110;-72
2023/01/28 07:37:34;;;;;;;20.48;9.85;;;;;;;-4.65;100.00;102213.41;4967974;28;20470;-73
2023/01/28 07:39:59;;;;;;;;;;;;;;;-4.68;100.00;102198.69;4951073;28;20127;-73
2023/01/28 07:42:25;;;;;;;25.50;11.25;;;;;;;-4.65;100.00;102202.13;4967603;28;20020;-73
2023/01/28 07:44:51;;;;;;;26.40;10.77;;;;;;;-4.51;100.00;102215.75;4952520;28;20030;-72
2023/01/28 07:47:16;;;;;;;;;;;;;;;-4.28;100.00;102216.13;4968533;28;20387;-71
2023/01/28 07:49:42;;;;;;;31.77;13.83;;;;;;;-4.12;100.00;102224.50;4950380;28;20048;-71
2023/01/28 07:52:08;;;;;;;33.38;15.20;;;;;;;-3.97;100.00;102235.50;4967711;28;20042;-72
2023/01/28 07:54:33;;;;;;;;;;;;;;;-3.68;100.00;102246.16;4950142;28;20041;-72
2023/01/28 07:56:59;;;;;;;26.90;11.80;;;;;;;-3.27;100.00;102267.84;4967574;28;19920;-72
2023/01/28 07:59:24;;;;;;;;;;;;;;;-2.94;100.00;102275.75;4968349;28;20030;-72
2023/01/28 08:01:50;;;;;;;23.42;11.02;;;;;;;-2.53;100.00;102288.66;4966092;28;20354;-72
2023/01/28 08:04:15;;;;;;;21.88;11.88;;;;;;;-2.18;100.00;102288.59;4967158;28;20039;-72
2023/01/28 08:06:40;;;;;;;18.75;10.57;;;;;;;-1.81;100.00;102281.41;4971727;28;20031;-73
2023/01/28 08:09:07;;;;;;;22.52;12.05;;;;;;;-1.31;100.00;102276.41;4966959;28;20031;-73
2023/01/28 08:11:37;;;;;;;23.15;11.70;;;;;;;-0.68;100.00;102282.19;4967174;28;20391;-73
2023/01/28 08:14:03;;;;;;;21.27;11.30;;;;;;;0.05;100.00;102280.47;4950192;28;20077;-74
2023/01/28 08:16:29;;;;;;;13.13;8.93;;;;;;;0.38;100.00;102234.53;4955844;28;20488;-73
2023/01/28 08:18:54;;;;;;;15.88;8.88;;;;;;;0.66;100.00;102173.00;4988521;28;20044;-73
2023/01/28 08:21:20;;;;;;;19.10;8.32;;;;;;;1.17;100.00;102121.72;4968008;28;20054;-73
2023/01/28 08:23:45;;;;;;;12.60;8.10;;;;;;;1.52;100.00;102023.63;4969011;28;20030;-70
2023/01/28 08:26:10;;;;;;;12.07;8.07;;;;;;;1.98;100.00;101953.78;4967720;28;20062;-71
2023/01/28 08:28:36;;;;;;;13.03;8.00;;;;;;;1.94;100.00;101831.06;4950737;28;20106;-70
2023/01/28 08:31:01;;;;;;;12.73;7.77;;;;;;;1.65;100.00;101678.09;4953360;28;20374;-71
2023/01/28 08:33:27;;;;;;;12.32;7.75;;;;;;;1.80;100.00;101575.50;4969287;28;20026;-70
2023/01/28 08:35:52;;;;;;;16.03;9.07;;;;;;;1.59;100.00;101483.66;4951613;28;20031;-71
2023/01/28 08:38:19;;;;;;;12.83;7.93;;;;;;;0.80;100.00;101334.63;4966885;28;20025;-70
2023/01/28 08:40:45;;;;;;;19.65;9.45;;;;;;;0.20;100.00;101237.22;4966895;28;20340;-71
2023/01/28 08:43:10;;;;;;;17.92;9.55;;;;;;;-0.08;100.00;101262.31;4966920;28;20407;-70
2023/01/28 08:45:38;;;;;;;15.60;9.00;;;;;;;-0.25;100.00;101292.09;4965392;28;20141;-70
2023/01/28 08:48:06;;;;;;;19.33;10.27;;;;;;;-0.23;100.00;101352.38;4968949;28;20038;-70
2023/01/28 08:50:37;;;;;;;16.05;10.50;;;;;;;-0.31;100.00;101405.22;4957314;28;20575;-69
2023/01/28 08:53:09;;;;;;;17.33;8.88;;;;;;;-0.33;100.00;101437.72;4965366;28;20554;-70
2023/01/28 08:55:35;;;;;;;17.55;9.57;;;;;;;-0.27;100.00;101479.41;4963921;28;20510;-70
2023/01/28 08:58:05;;;;;;;16.38;9.25;;;;;;;-0.63;100.00;101459.28;4966875;28;20110;-70
2023/01/28 09:00:32;;;;;;;18.77;8.82;;;;;;;-0.24;100.00;101560.63;4959052;28;20507;-69
2023/01/28 09:02:57;;;;;;;19.70;10.15;;;;;;;0.89;100.00;101705.75;4949353;28;20045;-71
2023/01/28 09:05:22;;;;;;;14.02;8.88;;;;;;;2.07;100.00;101658.25;4970580;28;20039;-71
2023/01/28 09:07:48;;;;;;;15.60;8.83;;;;;;;2.50;100.00;101459.91;4970451;28;20452;-70
2023/01/28 09:10:15;;;;;;;14.77;7.85;;;;;;;2.72;100.00;101206.34;4954795;28;20282;-71
2023/01/28 09:12:41;;;;;;;15.45;8.13;;;;;;;2.02;100.00;100912.31;4967326;28;20035;-71
2023/01/28 09:15:07;;;;;;;13.73;8.82;;;;;;;2.22;100.00;100942.56;4971088;28;20590;-71
2023/01/28 09:17:32;;;;;;;14.60;7.38;;;;;;;2.34;100.00;100880.28;4968076;28;20030;-71
2023/01/28 09:19:57;;;;;;;16.80;8.32;;;;;;;2.68;100.00;100838.38;4964857;28;20108;-71
2023/01/28 09:22:23;;;;;;;14.07;7.23;;;;;;;2.72;100.00;100668.50;4965799;28;20030;-70
2023/01/28 09:24:48;;;;;;;16.33;7.70;;;;;;;2.48;100.00;100549.91;4966566;28;20359;-71
2023/01/28 09:27:13;;;;;;;16.50;8.47;;;;;;;3.06;100.00;100644.84;4954375;28;20125;-70
2023/01/28 09:29:39;;;;;;;17.00;7.10;;;;;;;2.73;100.00;100414.44;4965653;28;20066;-71
2023/01/28 09:32:08;;;;;;;16.30;8.75;;;;;;;2.49;100.00;100391.69;4965339;28;20037;-71
2023/01/28 09:34:34;;;;;;;10.68;7.00;;;;;;;2.26;100.00;100313.59;4945751;28;20734;-71
2023/01/28 09:36:59;;;;;;;14.25;7.47;;;;;;;0.91;100.00;100051.19;4967537;28;20034;-71
2023/01/28 09:39:27;;;;;;;19.17;8.10;;;;;;;0.98;100.00;100409.94;4966067;28;20447;-71
2023/01/28 09:42:17;;;;;;;15.23;7.70;;;;;;;0.92;100.00;100494.47;4964179;28;20403;-70
2023/01/28 09:45:11;;;;;;;13.05;8.10;;;;;;;0.84;100.00;100581.75;4963900;28;20034;-73
2023/01/28 09:47:45;;;;;;;14.93;8.05;;;;;;;0.59;100.00;100592.22;4963085;28;20606;-72
2023/01/28 09:50:25;;;;;;;20.98;8.52;;;;;;;0.39;100.00;100678.41;4965843;28;20035;-73
2023/01/28 09:52:54;;;;;;;17.77;10.30;;;;;;;0.51;100.00;100850.16;4966232;28;20039;-73
2023/01/28 09:55:34;;;;;;;18.48;10.10;;;;;;;0.58;100.00;100906.63;4954495;28;20034;-71
2023/01/28 09:57:59;;;;;;;15.60;9.07;;;;;;;0.62;100.00;100949.34;4945849;28;20038;-73
2023/01/28 10:00:36;;;;;;;18.98;9.23;;;;;;;0.55;100.00;101003.22;4964960;28;20038;-74
2023/01/28 10:03:26;;;;;;;19.50;9.50;;;;;;;0.47;100.00;101042.22;4948539;28;20039;-72
2023/01/28 10:06:23;;;;;;;16.88;8.80;;;;;;;0.45;100.00;101088.78;4952500;28;20089;-73
2023/01/28 10:09:18;;;;;;;18.35;9.45;;;;;;;0.49;100.00;101120.03;4965010;28;20058;-73
2023/01/28 10:11:59;;;;;;;24.35;10.07;;;;;;;0.53;100.00;101181.13;4967569;28;20037;-72
2023/01/28 10:14:34;;;;;;;18.67;10.23;;;;;;;0.75;100.00;101275.34;4971519;28;20102;-72
2023/01/28 10:17:09;;;;;;;22.50;11.15;;;;;;;0.61;100.00;101229.69;4972812;28;20023;-71
2023/01/28 10:19:46;;;;;;;15.45;8.45;;;;;;;0.56;100.00;101217.72;4965857;28;20038;-71
2023/01/28 10:22:22;;;;;;;22.65;10.75;;;;;;;0.58;100.00;101258.72;4955969;28;21000;-69
2023/01/28 10:25:05;;;;;;;22.42;10.57;;;;;;;0.71;100.00;101329.88;4971797;28;20035;-71
2023/01/28 10:27:31;;;;;;;36.40;12.23;;;;;;;0.60;100.00;101305.97;4969425;28;20027;-70
2023/01/28 10:29:59;;;;;;;24.30;12.27;;;;;;;0.66;100.00;101329.28;4968276;28;20037;-69
2023/01/28 10:32:34;;;;;;;22.77;12.15;;;;;;;0.60;100.00;101303.34;4967562;28;20035;-73
2023/01/28 10:35:01;;;;;;;27.65;13.50;;;;;;;0.51;100.00;101270.53;4967554;28;20041;-73
2023/01/28 10:37:29;;;;;;;26.52;13.30;;;;;;;0.64;100.00;101357.44;4968042;28;20518;-73
2023/01/28 10:39:57;;;;;;;25.58;12.48;;;;;;;0.50;100.00;101334.53;4971281;28;20054;-73
2023/01/28 10:42:37;;;;;;;26.05;13.07;;;;;;;0.48;100.00;101354.78;4957137;28;20050;-73
2023/01/28 10:45:14;;;;;;;23.55;12.02;;;;;;;1.12;100.00;101483.66;4967268;28;20043;-73
2023/01/28 10:47:53;;;;;;;21.52;10.82;;;;;;;1.08;100.00;101379.53;4970629;28;20037;-73
2023/01/28 10:50:28;;;;;;;27.38;12.25;;;;;;;1.16;100.00;101365.03;4953485;28;20509;-72
2023/01/28 10:52:59;;;;;;;25.27;11.75;;;;;;;1.02;100.00;101302.69;4968457;28;20452;-73
2023/01/28 10:55:29;;;;;;;23.15;11.90;;;;;;;0.98;100.00;101277.53;4968857;28;20054;-72
2023/01/28 10:57:55;;;;;;;25.10;12.35;;;;;;;0.92;100.00;101267.34;4969130;28;20062;-72
2023/01/28 11:00:30;;;;;;;24.42;11.55;;;;;;;0.68;100.00;101217.03;4968927;28;20018;-73
2023/01/28 11:02:56;;;;;;;24.90;12.48;;;;;;;0.54;100.00;101267.75;4968982;28;20038;-73
2023/01/28 11:05:28;;;;;;;22.85;13.80;;;;;;;0.58;100.00;101329.69;4968855;28;20042;-72
2023/01/28 11:08:24;;;;;;;22.35;12.25;;;;;;;0.73;100.00;101377.94;4968929;28;20031;-73
2023/01/28 11:10:51;;;;;;;19.95;10.32;;;;;;;0.90;100.00;101437.50;4951022;28;20492;-73
2023/01/28 11:13:25;;;;;;;29.73;12.35;;;;;;;0.99;100.00;101418.59;4969209;28;20129;-72
2023/01/28 11:16:02;;;;;;;24.15;11.98;;;;;;;1.26;100.00;101444.28;4967623;28;20137;-73
2023/01/28 11:18:37;;;;;;;23.27;12.50;;;;;;;1.14;100.00;101345.03;4969077;28;20035;-73
2023/01/28 11:21:15;;;;;;;26.40;12.45;;;;;;;0.82;100.00;101248.63;4949974;28;20038;-72
2023/01/28 11:23:50;;;;;;;21.38;11.80;;;;;;;1.14;100.00;101402.88;4966818;28;20042;-73
2023/01/28 11:26:22;;;;;;;21.88;11.15;;;;;;;1.08;100.00;101380.41;4968818;28;20404;-73
2023/01/28 11:28:49;;;;;;;19.33;11.60;;;;;;;1.03;100.00;101358.75;4951785;28;20050;-72
2023/01/28 11:31:16;;;;;;;22.83;11.60;;;;;;;0.96;100.00;101354.78;4968939;28;20030;-73
2023/01/28 11:33:50;;;;;;;24.30;12.02;;;;;;;1.11;100.00;101414.44;4967700;28;20042;-69
2023/01/28 11:36:34;;;;;;;20.48;11.55;;;;;;;1.29;100.00;101409.06;4962827;28;20027;-75
2023/01/28 11:39:19;;;;;;;24.90;11.57;;;;;;;1.30;100.00;101350.25;4933862;28;20026;-74
2023/01/28 11:41:46;;;;;;;17.92;9.30;;;;;;;1.51;100.00;101393.75;4946327;28;20039;-75
2023/01/28 11:44:23;;;;;;;23.50;11.27;;;;;;;1.66;100.00;101353.41;4967763;28;20031;-71
2023/01/28 11:47:07;;;;;;;23.85;11.35;;;;;;;1.12;100.00;101216.22;4959245;28;20638;-74
2023/01/28 11:50:18;;;;;;;24.13;12.73;;;;;;;1.36;100.00;101294.63;4968149;28;20118;-75
2023/01/28 11:53:11;;;;;;;25.48;13.50;;;;;;;1.47;100.00;101289.59;4964875;28;20077;-72
2023/01/28 11:55:54;;;;;;;25.42;12.98;;;;;;;1.50;100.00;101271.03;4963940;28;20041;-69
2023/01/28 11:58:28;;;;;;;28.83;12.60;;;;;;;1.49;100.00;101248.25;4948588;28;20034;-72
2023/01/28 12:01:03;;;;;;;24.85;12.63;;;;;;;1.31;100.00;101188.84;4965963;28;20125;-71
2023/01/28 12:03:36;;;;;;;21.58;12.35;;;;;;;1.44;100.00;101245.91;4970556;28;20038;-74
2023/01/28 12:06:23;;;;;;;26.98;13.45;;;;;;;1.40;100.00;101241.75;4963226;28;20962;-72
2023/01/28 12:09:07;;;;;;;26.38;13.60;;;;;;;1.08;100.00;101154.25;4966663;28;20061;-72
2023/01/28 12:15:10;;;;;;;23.73;12.90;;;;;;;1.17;100.00;101266.81;4966338;28;20406;-75